Time;durP1;ratioP1;P1;durP2;ratioP2;P2;SDS_P1;SDS_P2;PMS_P1;PMS_P2;Temp;Humidity;BMP_temperature;BMP_pressure;BME280_temperature;BME280_humidity;BME280_pressure;Samples;Min_cycle;Max_cycle;Signal;HPM_P1;HPM_P2
2023/12/20 00:01:40;;;;;;;;;;;3.40;99.90;;;;;;5029098;28;19948;-84
2023/12/20 00:04:06;;;;;;;;;;;3.50;99.90;;;;;;5046046;28;19955;-84
2023/12/20 00:06:32;;;;;;;;;;;3.40;99.90;;;;;;5045819;28;19948;-84
2023/12/20 00:09:00;;;;;;;;;;;3.50;99.90;;;;;;5046535;28;20598;-85
2023/12/20 00:11:25;;;;;;;;;;;3.50;99.90;;;;;;5031141;28;20013;-85
2023/12/20 00:13:51;;;;;;;;;;;3.60;99.90;;;;;;5029270;28;19963;-84
2023/12/20 00:16:17;;;;;;;;;;;3.60;99.90;;;;;;5028913;28;19912;-82
2023/12/20 00:18:42;;;;;;;;;;;3.60;99.90;;;;;;5048920;28;19916;-85
2023/12/20 00:21:08;;;;;;;;;;;3.50;99.90;;;;;;5047589;28;19913;-85
2023/12/20 00:23:33;;;;;;;;;;;3.40;99.90;;;;;;5041429;28;19942;-85
2023/12/20 00:25:59;;;;;;;;;;;3.50;99.90;;;;;;5029635;28;19916;-86
2023/12/20 00:28:24;;;;;;;;;;;3.60;99.90;;;;;;5028708;28;19946;-85
2023/12/20 00:30:50;;;;;;;;;;;3.70;99.90;;;;;;5030932;28;19952;-87
2023/12/20 00:33:15;;;;;;;;;;;3.70;99.90;;;;;;5046940;28;19951;-86
2023/12/20 00:35:41;;;;;;;;;;;3.60;99.90;;;;;;5030717;28;20004;-86
2023/12/20 00:38:08;;;;;;;;;;;3.60;99.90;;;;;;5044689;28;19913;-84
2023/12/20 00:40:34;;;;;;;;;;;3.70;99.90;;;;;;5033969;28;19917;-84
2023/12/20 00:42:59;;;;;;;;;;;3.70;99.90;;;;;;5050659;28;20043;-85
2023/12/20 00:45:25;;;;;;;;;;;3.70;99.90;;;;;;5035733;28;19920;-85
2023/12/20 00:47:50;;;;;;;;;;;3.70;99.90;;;;;;5032153;28;19938;-86
2023/12/20 00:50:16;;;;;;;;;;;3.60;99.90;;;;;;5051407;28;19919;-84
2023/12/20 00:52:42;;;;;;;;;;;3.60;99.90;;;;;;5032283;28;19913;-86
2023/12/20 00:55:07;;;;;;;;;;;3.60;99.90;;;;;;5031790;28;19912;-85
2023/12/20 00:57:33;;;;;;;;;;;3.70;99.90;;;;;;5033875;28;19919;-85
2023/12/20 00:59:59;;;;;;;;;;;3.70;99.90;;;;;;5034426;28;19920;-85
2023/12/20 01:02:24;;;;;;;;;;;3.80;99.90;;;;;;5049785;28;19919;-85
2023/12/20 01:04:50;;;;;;;;;;;3.80;99.90;;;;;;5050230;28;19955;-84
2023/12/20 01:07:15;;;;;;;;;;;3.80;99.90;;;;;;5034332;28;20561;-84
2023/12/20 01:09:41;;;;;;;;;;;3.80;99.90;;;;;;5067377;28;20368;-83
2023/12/20 01:12:07;;;;;;;;;;;3.90;99.90;;;;;;5052141;28;19912;-84
2023/12/20 01:14:32;;;;;;;;;;;3.90;99.90;;;;;;5048894;28;20395;-83
2023/12/20 01:16:59;;;;;;;;;;;3.90;99.90;;;;;;5032067;28;20011;-83
2023/12/20 01:19:24;;;;;;;;;;;3.90;99.90;;;;;;5051778;28;19917;-83
2023/12/20 01:21:50;;;;;;;;;;;3.90;99.90;;;;;;5032667;28;19920;-83
2023/12/20 01:24:15;;;;;;;;;;;3.90;99.90;;;;;;5044381;28;19919;-84
2023/12/20 01:26:41;;;;;;;;;;;3.90;99.90;;;;;;5049092;28;19912;-82
2023/12/20 01:29:07;;;;;;;;;;;4.00;99.90;;;;;;5034112;28;20015;-83
2023/12/20 01:31:32;;;;;;;;;;;3.90;99.90;;;;;;5048332;28;19931;-83
2023/12/20 01:33:58;;;;;;;;;;;3.90;99.90;;;;;;5049176;28;20477;-82
2023/12/20 01:36:23;;;;;;;;;;;4.00;99.90;;;;;;5050186;28;20008;-83
2023/12/20 01:38:49;;;;;;;;;;;4.00;99.90;;;;;;5033435;28;20003;-88
2023/12/20 01:41:15;;;;;;;;;;;4.00;99.90;;;;;;5034162;28;19954;-84
2023/12/20 01:43:40;;;;;;;;;;;4.00;99.90;;;;;;5048855;28;19967;-83
2023/12/20 01:46:06;;;;;;;;;;;4.10;99.90;;;;;;5048121;28;20719;-84
2023/12/20 01:48:32;;;;;;;;;;;4.20;99.90;;;;;;5048467;28;19917;-83
2023/12/20 01:50:59;;;;;;;;;;;4.20;99.90;;;;;;5049026;28;19935;-82
2023/12/20 01:53:25;;;;;;;;;;;4.20;99.90;;;;;;5048595;28;20340;-83
2023/12/20 01:55:52;;;;;;;;;;;4.20;99.90;;;;;;5048590;28;19959;-83
2023/12/20 01:58:18;;;;;;;;;;;4.20;99.90;;;;;;5033694;28;20720;-82
2023/12/20 02:00:44;;;;;;;;;;;4.10;99.90;;;;;;5049359;28;20466;-82
2023/12/20 02:03:10;;;;;;;;;;;4.10;99.90;;;;;;5041736;28;19913;-83
2023/12/20 02:05:36;;;;;;;;;;;4.10;99.90;;;;;;5049077;28;20355;-83
2023/12/20 02:08:02;;;;;;;;;;;4.20;99.90;;;;;;5028434;28;19916;-82
2023/12/20 02:10:28;;;;;;;;;;;4.10;99.90;;;;;;5049483;28;19917;-84
2023/12/20 02:12:54;;;;;;;;;;;4.20;99.90;;;;;;5030442;28;19986;-84
2023/12/20 02:15:20;;;;;;;;;;;4.10;99.90;;;;;;5031859;28;19912;-83
2023/12/20 02:17:47;;;;;;;;;;;4.00;99.90;;;;;;5048290;28;19915;-82
2023/12/20 02:20:12;;;;;;;;;;;4.00;99.90;;;;;;5047863;28;19948;-83
2023/12/20 02:22:38;;;;;;;;;;;4.00;99.90;;;;;;5046547;28;20890;-83
2023/12/20 02:25:03;;;;;;;;;;;4.00;99.90;;;;;;5047630;28;20470;-83
2023/12/20 02:27:29;;;;;;;;;;;4.00;99.90;;;;;;5047649;28;19928;-83
2023/12/20 02:29:55;;;;;;;;;;;4.10;99.90;;;;;;5031897;28;19916;-83
2023/12/20 02:32:21;;;;;;;;;;;4.10;99.90;;;;;;5029528;28;19975;-80
2023/12/20 02:34:47;;;;;;;;;;;4.20;99.90;;;;;;5047549;28;20442;-80
2023/12/20 02:37:13;;;;;;;;;;;4.20;99.90;;;;;;5048222;28;19912;-83
2023/12/20 02:39:38;;;;;;;;;;;4.20;99.90;;;;;;5032500;28;19913;-83
2023/12/20 02:42:04;;;;;;;;;;;4.10;99.90;;;;;;5031176;28;20382;-84
2023/12/20 02:44:29;;;;;;;;;;;4.20;99.90;;;;;;5047411;28;19912;-83
2023/12/20 02:46:55;;;;;;;;;;;4.20;99.90;;;;;;5047611;28;19961;-84
2023/12/20 02:49:20;;;;;;;;;;;4.20;99.90;;;;;;5048873;28;19965;-84
2023/12/20 02:51:46;;;;;;;;;;;4.20;99.90;;;;;;5048362;28;19987;-85
2023/12/20 02:54:11;;;;;;;;;;;4.30;99.90;;;;;;5031227;28;19928;-84
2023/12/20 02:56:37;;;;;;;;;;;4.30;99.90;;;;;;5032220;28;19961;-83
2023/12/20 02:59:05;;;;;;;;;;;4.20;99.90;;;;;;5031367;28;19912;-85
2023/12/20 03:01:31;;;;;;;;;;;4.20;99.90;;;;;;5028963;28;19912;-85
2023/12/20 03:03:56;;;;;;;;;;;4.20;99.90;;;;;;5030263;28;19915;-84
2023/12/20 03:06:22;;;;;;;;;;;4.20;99.90;;;;;;5047409;28;19920;-84
2023/12/20 03:08:47;;;;;;;;;;;4.40;99.90;;;;;;5047028;28;19923;-85
2023/12/20 03:11:13;;;;;;;;;;;4.20;99.90;;;;;;5049554;28;20473;-84
2023/12/20 03:13:38;;;;;;;;;;;4.20;99.90;;;;;;5046879;28;20363;-81
2023/12/20 03:16:11;;;;;;;;;;;4.20;99.90;;;;;;5045909;28;19966;-81
2023/12/20 03:18:36;;;;;;;;;;;4.30;99.90;;;;;;5046249;28;19913;-81
2023/12/20 03:21:02;;;;;;;;;;;4.30;99.90;;;;;;5046898;28;20002;-81
2023/12/20 03:23:30;;;;;;;;;;;4.30;99.90;;;;;;5041213;28;19917;-81
2023/12/20 03:25:56;;;;;;;;;;;4.30;99.90;;;;;;5046522;28;19923;-81
2023/12/20 03:28:22;;;;;;;;;;;4.30;99.90;;;;;;5046150;28;20023;-80
2023/12/20 03:30:48;;;;;;;;;;;4.30;99.90;;;;;;5052631;28;20371;-80
2023/12/20 03:33:14;;;;;;;;;;;4.40;99.90;;;;;;5028932;28;19947;-81
2023/12/20 03:35:39;;;;;;;;;;;4.40;99.90;;;;;;5046394;28;19909;-81
2023/12/20 03:38:05;;;;;;;;;;;4.40;99.90;;;;;;5028190;28;19967;-81
2023/12/20 03:40:30;;;;;;;;;;;4.40;99.90;;;;;;5050736;28;19908;-82
2023/12/20 03:42:56;;;;;;;;;;;4.40;99.90;;;;;;5029531;28;19967;-82
2023/12/20 03:45:21;;;;;;;;;;;4.40;99.90;;;;;;5046361;28;19943;-82
2023/12/20 03:47:47;;;;;;;;;;;4.40;99.90;;;;;;5046301;28;19908;-80
2023/12/20 03:50:13;;;;;;;;;;;4.40;99.90;;;;;;5031070;28;20085;-79
2023/12/20 03:52:38;;;;;;;;;;;4.50;99.90;;;;;;5046377;28;19932;-80
2023/12/20 03:55:04;;;;;;;;;;;4.50;99.90;;;;;;5030405;28;20006;-80
2023/12/20 03:57:29;;;;;;;;;;;4.60;99.90;;;;;;5028904;28;19934;-81
2023/12/20 03:59:55;;;;;;;;;;;4.50;99.90;;;;;;5048584;28;19955;-81
2023/12/20 04:02:20;;;;;;;;;;;4.50;99.90;;;;;;5047717;28;20046;-81
2023/12/20 04:04:46;;;;;;;;;;;4.50;99.90;;;;;;5045848;28;19962;-80
2023/12/20 04:07:11;;;;;;;;;;;4.60;99.90;;;;;;5031254;28;19981;-80
2023/12/20 04:09:37;;;;;;;;;;;4.60;99.90;;;;;;5046153;28;19966;-79
2023/12/20 04:12:03;;;;;;;;;;;4.50;99.90;;;;;;5046040;28;20479;-81
2023/12/20 04:14:28;;;;;;;;;;;4.60;99.90;;;;;;5026526;28;20377;-82
2023/12/20 04:16:54;;;;;;;;;;;4.50;99.90;;;;;;5046225;28;19920;-81
2023/12/20 04:19:20;;;;;;;;;;;4.50;99.90;;;;;;5050278;28;20368;-81
2023/12/20 04:21:45;;;;;;;;;;;4.50;99.90;;;;;;5032487;28;19938;-80
2023/12/20 04:24:11;;;;;;;;;;;4.50;99.90;;;;;;5027487;28;20629;-80
2023/12/20 04:26:36;;;;;;;;;;;4.60;99.90;;;;;;5045379;28;19921;-80
2023/12/20 04:29:02;;;;;;;;;;;4.60;99.90;;;;;;5044973;28;19986;-80
2023/12/20 04:31:27;;;;;;;;;;;4.60;99.90;;;;;;5045785;28;19925;-82
2023/12/20 04:33:53;;;;;;;;;;;4.70;99.90;;;;;;5045795;28;19919;-81
2023/12/20 04:36:18;;;;;;;;;;;4.70;99.90;;;;;;5045245;28;20776;-82
2023/12/20 04:38:44;;;;;;;;;;;4.60;99.90;;;;;;5028297;28;19923;-81
2023/12/20 04:41:09;;;;;;;;;;;4.60;99.90;;;;;;5046263;28;19912;-82
2023/12/20 04:43:35;;;;;;;;;;;4.60;99.90;;;;;;5046381;28;19919;-82
2023/12/20 04:46:00;;;;;;;;;;;4.50;99.90;;;;;;5028351;28;20509;-82
2023/12/20 04:48:26;;;;;;;;;;;4.60;99.90;;;;;;5045768;28;19917;-82
2023/12/20 04:50:51;;;;;;;;;;;4.60;99.90;;;;;;5045316;28;20003;-82
2023/12/20 04:53:17;;;;;;;;;;;4.60;99.90;;;;;;5045412;28;20475;-82
2023/12/20 04:55:43;;;;;;;;;;;4.70;99.90;;;;;;5045434;28;20003;-81
2023/12/20 04:58:08;;;;;;;;;;;4.60;99.90;;;;;;5045547;28;19919;-82
2023/12/20 05:00:34;;;;;;;;;;;4.60;99.90;;;;;;5045129;28;19913;-81
2023/12/20 05:02:59;;;;;;;;;;;4.60;99.90;;;;;;5044808;28;19916;-82
2023/12/20 05:05:25;;;;;;;;;;;4.60;99.90;;;;;;5028085;28;19919;-82
2023/12/20 05:07:50;;;;;;;;;;;4.60;99.90;;;;;;5045358;28;19959;-82
2023/12/20 05:10:16;;;;;;;;;;;4.70;99.90;;;;;;5045799;28;19920;-82
2023/12/20 05:12:42;;;;;;;;;;;4.70;99.90;;;;;;5035489;28;19919;-83
2023/12/20 05:15:08;;;;;;;;;;;4.80;99.90;;;;;;5045209;28;20447;-82
2023/12/20 05:17:33;;;;;;;;;;;4.70;99.90;;;;;;5027085;28;19913;-82
2023/12/20 05:19:59;;;;;;;;;;;4.60;99.90;;;;;;5044494;28;20041;-82
2023/12/20 05:22:24;;;;;;;;;;;4.70;99.90;;;;;;5044982;28;20378;-82
2023/12/20 05:24:50;;;;;;;;;;;4.70;99.90;;;;;;5041876;28;20394;-82
2023/12/20 05:27:16;;;;;;;;;;;4.80;99.90;;;;;;5047402;28;19994;-82
2023/12/20 05:29:41;;;;;;;;;;;4.80;99.90;;;;;;5048764;28;20605;-83
2023/12/20 05:32:07;;;;;;;;;;;4.90;99.90;;;;;;5048386;28;19931;-82
2023/12/20 05:34:32;;;;;;;;;;;4.90;99.90;;;;;;5030831;28;19912;-83
2023/12/20 05:36:58;;;;;;;;;;;4.90;99.90;;;;;;5048141;28;19913;-82
2023/12/20 05:39:23;;;;;;;;;;;4.90;99.90;;;;;;5048382;28;19912;-82
2023/12/20 05:41:49;;;;;;;;;;;5.00;99.90;;;;;;5046005;28;19919;-80
2023/12/20 05:44:14;;;;;;;;;;;4.90;99.90;;;;;;5048932;28;19943;-80
2023/12/20 05:46:40;;;;;;;;;;;4.80;99.90;;;;;;5032229;28;20050;-82
2023/12/20 05:49:06;;;;;;;;;;;4.90;99.90;;;;;;5048906;28;19921;-82
2023/12/20 05:51:31;;;;;;;;;;;5.00;99.90;;;;;;5048475;28;19913;-81
2023/12/20 05:53:57;;;;;;;;;;;5.00;99.90;;;;;;5029823;28;19919;-85
2023/12/20 05:56:22;;;;;;;;;;;4.90;99.90;;;;;;5031976;28;20004;-84
2023/12/20 05:58:48;;;;;;;;;;;4.90;99.90;;;;;;5048444;28;20321;-83
2023/12/20 06:01:19;;;;;;;;;;;4.90;99.90;;;;;;5031302;28;19913;-82
2023/12/20 06:03:47;;;;;;;;;;;4.80;99.90;;;;;;5047330;28;20382;-82
2023/12/20 06:06:13;;;;;;;;;;;4.80;99.90;;;;;;5047737;28;19920;-84
2023/12/20 06:08:39;;;;;;;;;;;4.70;99.90;;;;;;5030858;28;19917;-82
2023/12/20 06:11:05;;;;;;;;;;;4.80;99.90;;;;;;5046704;28;19959;-87
2023/12/20 06:13:30;;;;;;;;;;;4.80;99.90;;;;;;5030749;28;20401;-86
2023/12/20 06:15:56;;;;;;;;;;;4.80;99.90;;;;;;5048147;28;19913;-84
2023/12/20 06:18:22;;;;;;;;;;;4.90;99.90;;;;;;5048810;28;19944;-87
2023/12/20 06:20:47;;;;;;;;;;;4.90;99.90;;;;;;5031235;28;19982;-84
2023/12/20 06:23:13;;;;;;;;;;;4.80;99.90;;;;;;5046952;28;19919;-86
2023/12/20 06:25:38;;;;;;;;;;;4.80;99.90;;;;;;5047175;28;19912;-84
2023/12/20 06:28:04;;;;;;;;;;;4.70;99.90;;;;;;5047305;28;19992;-87
2023/12/20 06:30:32;;;;;;;;;;;4.70;99.90;;;;;;5031813;28;19952;-86
2023/12/20 06:32:58;;;;;;;;;;;4.70;99.90;;;;;;5045492;28;19962;-84
2023/12/20 06:35:24;;;;;;;;;;;4.70;99.90;;;;;;5046349;28;20012;-85
2023/12/20 06:37:49;;;;;;;;;;;4.70;99.90;;;;;;5045755;28;19913;-85
2023/12/20 06:40:16;;;;;;;;;;;4.70;99.90;;;;;;5044246;28;20628;-85
2023/12/20 06:42:41;;;;;;;;;;;4.60;99.90;;;;;;5033873;28;20462;-85
2023/12/20 06:45:07;;;;;;;;;;;4.50;99.90;;;;;;5046552;28;20376;-84
2023/12/20 06:47:33;;;;;;;;;;;4.50;99.90;;;;;;5027684;28;19958;-82
2023/12/20 06:49:58;;;;;;;;;;;4.50;99.90;;;;;;5046808;28;19972;-84
2023/12/20 06:52:24;;;;;;;;;;;4.50;99.90;;;;;;5030070;28;19934;-82
2023/12/20 06:54:49;;;;;;;;;;;4.60;99.90;;;;;;5047277;28;19913;-79
2023/12/20 06:57:15;;;;;;;;;;;4.80;99.90;;;;;;5045356;28;19916;-81
2023/12/20 06:59:40;;;;;;;;;;;4.80;99.90;;;;;;5029552;28;19908;-80
2023/12/20 07:02:06;;;;;;;;;;;4.80;99.90;;;;;;5046335;28;20580;-80
2023/12/20 07:04:32;;;;;;;;;;;4.80;99.90;;;;;;5047705;28;19944;-81
2023/12/20 07:07:00;;;;;;;;;;;4.70;99.90;;;;;;5046781;28;19913;-78
2023/12/20 07:09:26;;;;;;;;;;;4.70;99.90;;;;;;5044691;28;19932;-80
2023/12/20 07:11:51;;;;;;;;;;;4.70;99.90;;;;;;5028862;28;19909;-81
2023/12/20 07:14:17;;;;;;;;;;;4.70;99.90;;;;;;5045839;28;20011;-82
2023/12/20 07:16:42;;;;;;;;;;;4.60;99.90;;;;;;5046612;28;19915;-81
2023/12/20 07:19:08;;;;;;;;;;;4.60;99.90;;;;;;5030178;28;20454;-83
2023/12/20 07:21:33;;;;;;;;;;;4.50;99.90;;;;;;5047958;28;19913;-83
2023/12/20 07:23:59;;;;;;;;;;;4.50;99.90;;;;;;5058958;28;19909;-82
2023/12/20 07:26:24;;;;;;;;;;;4.50;99.90;;;;;;5029637;28;19915;-82
2023/12/20 07:28:50;;;;;;;;;;;4.60;99.90;;;;;;5047814;28;20783;-83
2023/12/20 07:31:16;;;;;;;;;;;4.50;99.90;;;;;;5047424;28;19917;-82
2023/12/20 07:33:41;;;;;;;;;;;4.50;99.90;;;;;;5047993;28;19909;-83
2023/12/20 07:36:07;;;;;;;;;;;4.70;99.90;;;;;;5047465;28;19924;-87
2023/12/20 07:38:33;;;;;;;;;;;4.80;99.90;;;;;;5046099;28;19912;-82
2023/12/20 07:40:59;;;;;;;;;;;4.90;99.90;;;;;;5047068;28;20544;-82
2023/12/20 07:43:24;;;;;;;;;;;4.90;99.90;;;;;;5045465;28;20015;-82
2023/12/20 07:45:50;;;;;;;;;;;4.90;99.90;;;;;;5046501;28;19919;-82
2023/12/20 07:48:15;;;;;;;;;;;4.90;99.90;;;;;;5047223;28;19939;-80
2023/12/20 07:50:42;;;;;;;;;;;4.90;99.90;;;;;;5046142;28;19917;-81
2023/12/20 07:53:07;;;;;;;;;;;4.80;99.90;;;;;;5047168;28;19943;-81
2023/12/20 07:55:34;;;;;;;;;;;4.80;99.90;;;;;;5032578;28;19942;-82
2023/12/20 07:58:00;;;;;;;;;;;4.90;99.90;;;;;;5046657;28;20685;-82
2023/12/20 08:00:25;;;;;;;;;;;4.80;99.90;;;;;;5028748;28;19987;-82
2023/12/20 08:02:51;;;;;;;;;;;4.80;99.90;;;;;;5046017;28;20466;-82
2023/12/20 08:05:16;;;;;;;;;;;5.00;99.90;;;;;;5028845;28;20032;-82
2023/12/20 08:07:42;;;;;;;;;;;5.00;99.90;;;;;;5047541;28;19915;-81
2023/12/20 08:10:08;;;;;;;;;;;5.20;99.90;;;;;;5029319;28;19954;-81
2023/12/20 08:12:34;;;;;;;;;;;5.50;99.90;;;;;;5029973;28;19908;-81
2023/12/20 08:14:59;;;;;;;;;;;5.70;99.90;;;;;;5029775;28;20356;-81
2023/12/20 08:17:25;;;;;;;;;;;5.90;99.90;;;;;;5045564;28;20078;-83
2023/12/20 08:19:50;;;;;;;;;;;6.10;99.90;;;;;;5046651;28;19909;-82
2023/12/20 08:22:16;;;;;;;;;;;5.50;99.90;;;;;;5030183;28;20023;-81
2023/12/20 08:24:41;;;;;;;;;;;5.60;99.90;;;;;;5041922;28;19909;-82
2023/12/20 08:27:07;;;;;;;;;;;5.30;99.90;;;;;;5048014;28;19990;-81
2023/12/20 08:29:33;;;;;;;;;;;5.20;99.90;;;;;;5029576;28;19987;-82
2023/12/20 08:31:59;;;;;;;;;;;5.30;99.90;;;;;;5046823;28;19931;-81
2023/12/20 08:34:24;;;;;;;;;;;5.50;99.90;;;;;;5029141;28;19909;-82
2023/12/20 08:36:51;;;;;;;;;;;5.40;99.90;;;;;;5046552;28;19934;-82
2023/12/20 08:39:16;;;;;;;;;;;5.30;99.90;;;;;;5045885;28;20007;-81
2023/12/20 08:41:42;;;;;;;;;;;5.00;99.90;;;;;;5046468;28;19976;-81
2023/12/20 08:44:08;;;;;;;;;;;4.90;99.90;;;;;;5046016;28;19931;-82
2023/12/20 08:46:33;;;;;;;;;;;4.80;99.90;;;;;;5045606;28;20013;-82
2023/12/20 08:49:00;;;;;;;;;;;4.80;99.90;;;;;;5046306;28;19919;-82
2023/12/20 08:51:25;;;;;;;;;;;5.10;99.90;;;;;;5045901;28;19908;-81
2023/12/20 08:53:51;;;;;;;;;;;5.30;99.90;;;;;;5028539;28;19911;-81
2023/12/20 08:56:17;;;;;;;;;;;5.60;99.90;;;;;;5046016;28;19971;-81
2023/12/20 08:58:43;;;;;;;;;;;5.10;99.90;;;;;;5046188;28;19909;-81
2023/12/20 09:01:09;;;;;;;;;;;5.10;99.90;;;;;;5028419;28;19915;-82
2023/12/20 09:03:34;;;;;;;;;;;5.00;99.90;;;;;;5032099;28;19908;-81
2023/12/20 09:06:00;;;;;;;;;;;5.10;99.90;;;;;;5049932;28;19908;-82
2023/12/20 09:08:25;;;;;;;;;;;5.30;99.90;;;;;;5050335;28;20323;-82
2023/12/20 09:10:51;;;;;;;;;;;5.60;99.90;;;;;;5049123;28;19912;-82
2023/12/20 09:13:16;;;;;;;;;;;5.20;99.90;;;;;;5031551;28;19936;-82
2023/12/20 09:15:42;;;;;;;;;;;5.70;99.90;;;;;;5049256;28;19988;-82
2023/12/20 09:18:08;;;;;;;;;;;5.90;99.90;;;;;;5049810;28;19909;-82
2023/12/20 09:20:33;;;;;;;;;;;6.20;99.90;;;;;;5049684;28;19909;-82
2023/12/20 09:22:59;;;;;;;;;;;6.30;99.90;;;;;;5028356;28;19936;-82
2023/12/20 09:25:25;;;;;;;;;;;6.00;99.90;;;;;;5031454;28;19908;-82
2023/12/20 09:27:52;;;;;;;;;;;6.30;99.90;;;;;;5031946;28;19908;-82
2023/12/20 09:30:18;;;;;;;;;;;6.50;99.90;;;;;;5049960;28;20809;-82
2023/12/20 09:32:43;;;;;;;;;;;6.50;99.90;;;;;;5049506;28;19922;-83
2023/12/20 09:35:09;;;;;;;;;;;6.70;99.90;;;;;;5032085;28;19908;-83
2023/12/20 09:37:34;;;;;;;;;;;6.80;99.90;;;;;;5031810;28;20443;-84
2023/12/20 09:40:00;;;;;;;;;;;7.30;99.90;;;;;;5049449;28;19909;-83
2023/12/20 09:42:52;;;;;;;;;;;7.40;99.90;;;;;;5050731;28;19905;-84
2023/12/20 09:45:19;;;;;;;;;;;7.50;99.90;;;;;;5036665;28;19916;-84
2023/12/20 09:47:45;;;;;;;;;;;7.70;99.90;;;;;;5050082;28;20015;-83
2023/12/20 09:50:12;;;;;;;;;;;7.60;99.90;;;;;;5028381;28;19924;-84
2023/12/20 09:52:38;;;;;;;;;;;7.70;99.90;;;;;;5047978;28;20295;-84
2023/12/20 09:55:05;;;;;;;;;;;7.70;99.90;;;;;;5049712;28;19909;-84
2023/12/20 09:57:32;;;;;;;;;;;7.80;99.90;;;;;;5031120;28;19915;-83
2023/12/20 09:59:57;;;;;;;;;;;7.60;99.90;;;;;;5030764;28;19917;-84
2023/12/20 10:02:24;;;;;;;;;;;7.70;99.90;;;;;;5031127;28;19909;-83
2023/12/20 10:04:50;;;;;;;;;;;7.80;99.90;;;;;;5030651;28;19919;-82
2023/12/20 10:07:15;;;;;;;;;;;7.90;99.90;;;;;;5030033;28;21472;-84
2023/12/20 10:09:41;;;;;;;;;;;7.80;99.90;;;;;;5047438;28;19970;-84
2023/12/20 10:12:07;;;;;;;;;;;7.80;99.90;;;;;;5030478;28;19917;-84
2023/12/20 10:14:33;;;;;;;;;;;7.90;99.90;;;;;;5033946;28;19932;-85
2023/12/20 10:17:02;;;;;;;;;;;7.90;99.90;;;;;;5029892;28;19934;-84
2023/12/20 10:19:28;;;;;;;;;;;7.80;99.90;;;;;;5048086;28;19913;-84
2023/12/20 10:21:53;;;;;;;;;;;7.90;99.90;;;;;;5046784;28;19913;-83
2023/12/20 10:24:19;;;;;;;;;;;7.90;99.90;;;;;;5030837;28;20003;-87
2023/12/20 10:26:44;;;;;;;;;;;8.00;99.90;;;;;;5031649;28;19908;-82
2023/12/20 10:29:10;;;;;;;;;;;7.90;99.90;;;;;;5047921;28;19922;-82
2023/12/20 10:31:36;;;;;;;;;;;8.00;99.90;;;;;;5048052;28;19923;-81
2023/12/20 10:34:02;;;;;;;;;;;8.00;99.90;;;;;;5048350;28;19912;-81
2023/12/20 10:36:29;;;;;;;;;;;7.90;99.90;;;;;;5047959;28;20717;-82
2023/12/20 10:38:55;;;;;;;;;;;7.80;99.90;;;;;;5047088;28;20919;-81
2023/12/20 10:41:24;;;;;;;;;;;7.50;99.90;;;;;;5031596;28;19908;-82
2023/12/20 10:43:51;;;;;;;;;;;7.70;99.90;;;;;;5045332;28;19915;-82
2023/12/20 10:46:18;;;;;;;;;;;7.80;99.90;;;;;;5029823;28;19900;-83
2023/12/20 10:48:45;;;;;;;;;;;8.00;99.90;;;;;;5029117;28;19916;-85
2023/12/20 10:51:11;;;;;;;;;;;8.00;99.90;;;;;;5033011;28;19917;-86
2023/12/20 10:53:37;;;;;;;;;;;7.90;99.90;;;;;;5030438;28;19958;-85
2023/12/20 10:56:04;;;;;;;;;;;8.00;99.90;;;;;;5047595;28;19909;-85
2023/12/20 10:58:31;;;;;;;;;;;7.90;99.90;;;;;;5031186;28;19905;-85
2023/12/20 11:01:00;;;;;;;;;;;7.90;99.90;;;;;;5030656;28;19908;-84
2023/12/20 11:03:26;;;;;;;;;;;7.90;99.90;;;;;;5059574;28;19912;-85
2023/12/20 11:05:55;;;;;;;;;;;7.90;99.90;;;;;;5047838;28;19917;-84
2023/12/20 11:08:26;;;;;;;;;;;7.70;99.90;;;;;;5046354;28;19957;-85
2023/12/20 11:11:00;;;;;;;;;;;7.50;99.90;;;;;;5047313;28;20020;-85
2023/12/20 11:13:32;;;;;;;;;;;7.60;99.90;;;;;;5047682;28;19911;-84
2023/12/20 11:15:58;;;;;;;;;;;7.90;99.90;;;;;;5024869;28;20298;-85
2023/12/20 11:18:30;;;;;;;;;;;8.40;99.90;;;;;;5047038;28;19955;-85
2023/12/20 11:21:00;;;;;;;;;;;8.80;99.90;;;;;;5025496;28;19912;-84
2023/12/20 11:23:25;;;;;;;;;;;8.80;99.90;;;;;;5024017;28;20000;-84
2023/12/20 11:25:56;;;;;;;;;;;8.60;99.90;;;;;;5029935;28;20000;-85
2023/12/20 11:28:22;;;;;;;;;;;8.50;99.90;;;;;;5031529;28;19908;-83
2023/12/20 11:30:50;;;;;;;;;;;8.30;99.90;;;;;;5031641;28;20554;-86
2023/12/20 11:33:16;;;;;;;;;;;8.30;99.90;;;;;;5047229;28;20007;-83
2023/12/20 11:35:42;;;;;;;;;;;8.30;99.90;;;;;;5047247;28;19912;-84
2023/12/20 11:38:11;;;;;;;;;;;8.20;99.90;;;;;;5046299;28;19909;-87
2023/12/20 11:40:36;;;;;;;;;;;8.20;99.90;;;;;;5049320;28;19909;-83
2023/12/20 11:43:02;;;;;;;;;;;8.10;99.90;;;;;;5046692;28;19963;-83
2023/12/20 11:45:28;;;;;;;;;;;8.10;99.90;;;;;;5033993;28;19912;-86
2023/12/20 11:47:54;;;;;;;;;;;8.30;99.90;;;;;;5029307;28;19917;-89
2023/12/20 11:50:20;;;;;;;;;;;8.10;99.90;;;;;;5033470;28;19923;-86
2023/12/20 11:52:46;;;;;;;;;;;8.10;99.90;;;;;;5062524;28;19913;-86
2023/12/20 11:55:12;;;;;;;;;;;8.00;99.90;;;;;;5029083;28;20335;-85
2023/12/20 11:57:37;;;;;;;;;;;7.60;99.90;;;;;;5030877;28;20031;-85
2023/12/20 12:00:03;;;;;;;;;;;7.50;99.90;;;;;;5029290;28;20539;-85
2023/12/20 12:02:30;;;;;;;;;;;7.40;99.90;;;;;;5032244;28;20451;-92
2023/12/20 12:04:56;;;;;;;;;;;7.30;99.90;;;;;;5031035;28;19913;-85
2023/12/20 12:07:22;;;;;;;;;;;7.40;99.90;;;;;;5045309;28;19954;-89
2023/12/20 12:09:47;;;;;;;;;;;7.40;99.90;;;;;;5050515;28;19917;-87
2023/12/20 12:12:13;;;;;;;;;;;7.30;99.90;;;;;;5038611;28;19935;-86
2023/12/20 12:14:40;;;;;;;;;;;7.40;99.90;;;;;;5032204;28;19915;-89
2023/12/20 12:17:15;;;;;;;;;;;7.50;99.90;;;;;;5041332;28;19956;-89
2023/12/20 12:19:41;;;;;;;;;;;7.70;99.90;;;;;;5048715;28;20015;-88
2023/12/20 12:22:13;;;;;;;;;;;8.00;99.90;;;;;;5051663;28;19912;-87
2023/12/20 12:24:43;;;;;;;;;;;8.50;99.90;;;;;;5036416;28;19913;-88
2023/12/20 12:27:08;;;;;;;;;;;8.70;99.90;;;;;;5043077;28;19909;-90
2023/12/20 12:29:37;;;;;;;;;;;8.40;99.90;;;;;;5033458;28;20007;-88
2023/12/20 12:32:06;;;;;;;;;;;8.10;99.90;;;;;;5033846;28;19928;-88
2023/12/20 12:34:32;;;;;;;;;;;7.90;99.90;;;;;;5030753;28;19916;-91
2023/12/20 12:36:58;;;;;;;;;;;7.60;99.90;;;;;;5034816;28;20608;-86
2023/12/20 12:39:26;;;;;;;;;;;7.70;99.90;;;;;;5034352;28;20802;-86
2023/12/20 12:41:52;;;;;;;;;;;7.90;99.90;;;;;;5031897;28;19917;-87
2023/12/20 12:44:18;;;;;;;;;;;7.70;99.90;;;;;;5033427;28;19955;-88
2023/12/20 12:46:44;;;;;;;;;;;7.30;99.90;;;;;;5032872;28;19988;-89
2023/12/20 12:49:09;;;;;;;;;;;7.50;99.90;;;;;;5052225;28;19917;-87
2023/12/20 12:51:35;;;;;;;;;;;8.00;99.90;;;;;;5047248;28;19963;-88
2023/12/20 12:54:00;;;;;;;;;;;7.80;99.90;;;;;;5034192;28;19909;-89
2023/12/20 12:56:26;;;;;;;;;;;7.80;99.90;;;;;;5051747;28;19915;-87
2023/12/20 12:58:52;;;;;;;;;;;8.00;99.90;;;;;;5053424;28;19915;-88
2023/12/20 13:01:17;;;;;;;;;;;8.00;99.90;;;;;;5050916;28;19986;-89
2023/12/20 13:03:43;;;;;;;;;;;8.00;99.90;;;;;;5035191;28;20348;-90
2023/12/20 13:06:08;;;;;;;;;;;8.10;99.90;;;;;;5032145;28;19909;-90
2023/12/20 13:08:34;;;;;;;;;;;8.00;99.90;;;;;;5028748;28;20654;-87
2023/12/20 13:11:00;;;;;;;;;;;8.10;99.90;;;;;;5034107;28;19908;-89
2023/12/20 13:13:26;;;;;;;;;;;8.20;99.90;;;;;;5034373;28;20495;-88
2023/12/20 13:15:54;;;;;;;;;;;7.90;99.90;;;;;;5037155;28;19908;-91
2023/12/20 13:18:23;;;;;;;;;;;7.70;99.90;;;;;;5034662;28;20438;-89
2023/12/20 13:20:49;;;;;;;;;;;7.70;99.90;;;;;;5037599;28;20402;-88
2023/12/20 13:23:15;;;;;;;;;;;7.70;99.90;;;;;;5035528;28;19923;-89
2023/12/20 13:25:45;;;;;;;;;;;7.70;99.90;;;;;;5034438;28;19905;-89
2023/12/20 13:28:11;;;;;;;;;;;7.80;99.90;;;;;;5034415;28;19916;-88
2023/12/20 13:30:36;;;;;;;;;;;7.80;99.90;;;;;;5051210;28;19921;-88
2023/12/20 13:33:02;;;;;;;;;;;7.70;99.90;;;;;;5033907;28;19999;-87
2023/12/20 13:35:27;;;;;;;;;;;7.70;99.90;;;;;;5066358;28;19909;-88
2023/12/20 13:37:53;;;;;;;;;;;7.70;99.90;;;;;;5051415;28;19916;-87
2023/12/20 13:40:19;;;;;;;;;;;7.50;99.90;;;;;;5052634;28;20007;-87
2023/12/20 13:42:45;;;;;;;;;;;7.50;99.90;;;;;;5049432;28;19920;-88
2023/12/20 13:45:11;;;;;;;;;;;7.40;99.90;;;;;;5031326;28;19909;-87
2023/12/20 13:47:36;;;;;;;;;;;7.40;99.90;;;;;;5031199;28;20368;-86
2023/12/20 13:50:02;;;;;;;;;;;7.30;99.90;;;;;;5031341;28;19916;-86
2023/12/20 13:52:28;;;;;;;;;;;7.20;99.90;;;;;;5031207;28;19939;-87
2023/12/20 13:54:53;;;;;;;;;;;7.10;99.90;;;;;;5030970;28;19995;-88
2023/12/20 13:57:19;;;;;;;;;;;7.20;99.90;;;;;;5048539;28;19951;-88
2023/12/20 13:59:44;;;;;;;;;;;7.30;99.90;;;;;;5048249;28;19931;-89
2023/12/20 14:02:10;;;;;;;;;;;7.30;99.90;;;;;;5030713;28;19927;-88
2023/12/20 14:04:36;;;;;;;;;;;7.40;99.90;;;;;;5034402;28;19909;-88
2023/12/20 14:07:01;;;;;;;;;;;7.50;99.90;;;;;;5030966;28;19905;-88
2023/12/20 14:09:27;;;;;;;;;;;7.50;99.90;;;;;;5030569;28;20413;-87
2023/12/20 14:11:53;;;;;;;;;;;7.60;99.90;;;;;;5049040;28;19915;-87
2023/12/20 14:14:20;;;;;;;;;;;7.60;99.90;;;;;;5048737;28;20023;-88
2023/12/20 14:16:45;;;;;;;;;;;7.60;99.90;;;;;;5029390;28;20506;-89
2023/12/20 14:19:12;;;;;;;;;;;7.60;99.90;;;;;;5048885;28;19952;-89
2023/12/20 14:21:37;;;;;;;;;;;7.60;99.90;;;;;;5048677;28;19940;-89
2023/12/20 14:24:03;;;;;;;;;;;7.50;99.90;;;;;;5028854;28;19908;-88